Ardara, Pennsylvania
Current Conditions -  °F | °C
As of 7:53 AM on Wednesday 22 Oct 2014 (Local Time) from KAGC Reporting Station
Overcast Overcast  
Wind Chill: 40°   Ceiling: 1700
Heat Index: 46°   Visibility: 10mi
Dew Point: 40°   Wind: 13mph
Humidity: 79%   Direction: 350°N
Pressure: 30.1"   Gusts: 21mph
Location:  40.36°N, 79.73°W
Report Text: KAGC 221153Z 35011G18KT 10SM OVC017 08/04 A3010 RMK AO2 SLP201 60001 70011 T00780044 10089 20078 53020
Loading
Personal Weather Stations






























Interactive Weather Map New forecast layout! Learn more

10-Day Weather Forecast

Advertisements
Track Severe Weather on mobile